Time;durP1;ratioP1;P1;durP2;ratioP2;P2;SDS_P1;SDS_P2;PMS_P1;PMS_P2;Temp;Humidity;BMP_temperature;BMP_pressure;BME280_temperature;BME280_humidity;BME280_pressure;Samples;Min_cycle;Max_cycle;Signal;HPM_P1;HPM_P2
2022/08/17 00:01:02;;;;;;;3.85;2.78;;;;;;;;;;5009869;28;20495;-85
2022/08/17 00:03:34;;;;;;;3.92;2.90;;;;;;;;;;5002357;28;20042;-84
2022/08/17 00:06:11;;;;;;;5.50;2.58;;;;;;;;;;5003074;28;20026;-85
2022/08/17 00:08:54;;;;;;;5.32;3.08;;;;;;;;;;4999854;28;20088;-85
2022/08/17 00:11:29;;;;;;;4.78;2.50;;;;;;;;;;5002196;28;20026;-86
2022/08/17 00:13:59;;;;;;;4.55;3.30;;;;;;;;;;5002919;28;20114;-85
2022/08/17 00:16:30;;;;;;;;;;;;;;;;;;4999541;28;20025;-85
2022/08/17 00:18:59;;;;;;;3.55;2.80;;;;;;;;;;5004830;28;19913;-86
2022/08/17 00:21:24;;;;;;;3.55;2.92;;;;;;;;;;5003202;28;20382;-85
2022/08/17 00:23:50;;;;;;;6.45;3.42;;;;;;;;;;4998473;28;20125;-85
2022/08/17 00:26:18;;;;;;;4.97;3.30;;;;;;;;;;5005360;28;20053;-87
2022/08/17 00:28:44;;;;;;;5.32;3.45;;;;;;;;;;5003610;28;20483;-86
2022/08/17 00:31:11;;;;;;;5.75;3.00;;;;;;;;;;4999305;28;20060;-86
2022/08/17 00:33:39;;;;;;;5.65;3.40;;;;;;;;;;5000289;28;20042;-85
2022/08/17 00:36:06;;;;;;;4.05;3.10;;;;;;;;;;5001303;28;20398;-87
2022/08/17 00:38:33;;;;;;;5.43;3.20;;;;;;;;;;5007167;28;20037;-86
2022/08/17 00:41:04;;;;;;;3.95;3.05;;;;;;;;;;5001783;28;20027;-85
2022/08/17 00:43:35;;;;;;;4.10;3.10;;;;;;;;;;5002224;28;20037;-86
2022/08/17 00:46:05;;;;;;;7.90;3.38;;;;;;;;;;5002203;28;20370;-85
2022/08/17 00:48:31;;;;;;;;;;;;;;;;;;5002137;28;20037;-85
2022/08/17 00:51:05;;;;;;;4.05;3.20;;;;;;;;;;5000443;28;19917;-85
2022/08/17 00:53:34;;;;;;;4.60;3.35;;;;;;;;;;5000460;28;20038;-86
2022/08/17 00:56:03;;;;;;;6.13;3.60;;;;;;;;;;5002266;28;20479;-85
2022/08/17 00:58:30;;;;;;;5.00;3.83;;;;;;;;;;5001614;28;20431;-86
2022/08/17 01:00:55;;;;;;;4.30;3.50;;;;;;;;;;4998237;28;20033;-85
2022/08/17 01:03:24;;;;;;;7.53;4.32;;;;;;;;;;5006600;28;20029;-84
2022/08/17 01:05:53;;;;;;;6.43;3.80;;;;;;;;;;4999832;28;20030;-86
2022/08/17 01:08:25;;;;;;;5.57;3.80;;;;;;;;;;4985565;28;20026;-85
2022/08/17 01:10:55;;;;;;;4.13;3.67;;;;;;;;;;5002837;28;20033;-86
2022/08/17 01:13:22;;;;;;;5.20;3.60;;;;;;;;;;5005226;28;20435;-86
2022/08/17 01:16:10;;;;;;;4.85;3.67;;;;;;;;;;5000279;28;20030;-86
2022/08/17 01:18:37;;;;;;;5.28;3.97;;;;;;;;;;5004892;28;20486;-85
2022/08/17 01:21:19;;;;;;;4.40;3.58;;;;;;;;;;4999317;28;20467;-85
2022/08/17 01:23:44;;;;;;;3.97;3.58;;;;;;;;;;5002460;28;20165;-85
2022/08/17 01:26:09;;;;;;;5.38;3.65;;;;;;;;;;4999390;28;20101;-86
2022/08/17 01:28:38;;;;;;;8.18;4.03;;;;;;;;;;5004033;28;20113;-85
2022/08/17 01:31:05;;;;;;;6.45;3.83;;;;;;;;;;4998086;28;20026;-85
2022/08/17 01:33:31;;;;;;;5.05;3.95;;;;;;;;;;4999179;28;20451;-85
2022/08/17 01:35:56;;;;;;;6.15;4.25;;;;;;;;;;5002679;28;20061;-85
2022/08/17 01:38:23;;;;;;;5.35;3.88;;;;;;;;;;5000477;28;20023;-86
2022/08/17 01:40:52;;;;;;;5.13;3.53;;;;;;;;;;5001406;28;20056;-85
2022/08/17 01:43:25;;;;;;;7.80;4.10;;;;;;;;;;5001325;28;20490;-85
2022/08/17 01:45:55;;;;;;;7.25;4.47;;;;;;;;;;5005232;28;20037;-86
2022/08/17 01:48:22;;;;;;;5.95;4.38;;;;;;;;;;5004111;28;20474;-85
2022/08/17 01:50:50;;;;;;;6.35;4.32;;;;;;;;;;4998330;28;20030;-85
2022/08/17 01:53:22;;;;;;;5.15;3.88;;;;;;;;;;4996513;28;20026;-84
2022/08/17 01:56:01;;;;;;;7.55;4.20;;;;;;;;;;5005196;28;20038;-84
2022/08/17 01:58:26;;;;;;;6.72;4.80;;;;;;;;;;4997813;28;20042;-85
2022/08/17 02:00:53;;;;;;;11.48;5.20;;;;;;;;;;4998641;28;20081;-84
2022/08/17 02:03:20;;;;;;;4.90;4.22;;;;;;;;;;5002157;28;20029;-85
2022/08/17 02:05:47;;;;;;;5.75;4.03;;;;;;;;;;5001332;28;20057;-84
2022/08/17 02:08:14;;;;;;;7.38;4.50;;;;;;;;;;5002490;28;20026;-84
2022/08/17 02:10:39;;;;;;;7.07;5.00;;;;;;;;;;4996915;28;20030;-85
2022/08/17 02:13:05;;;;;;;5.13;4.45;;;;;;;;;;5005123;28;20036;-85
2022/08/17 02:15:31;;;;;;;8.68;4.43;;;;;;;;;;5006762;28;20053;-86
2022/08/17 02:17:56;;;;;;;6.28;4.18;;;;;;;;;;5002429;28;20371;-85
2022/08/17 02:20:22;;;;;;;7.75;4.68;;;;;;;;;;5004549;28;20026;-85
2022/08/17 02:22:49;;;;;;;9.45;4.22;;;;;;;;;;4999160;28;20489;-85
2022/08/17 02:25:17;;;;;;;5.18;3.85;;;;;;;;;;5000305;28;20039;-85
2022/08/17 02:27:43;;;;;;;6.67;4.37;;;;;;;;;;4995803;28;20483;-86
2022/08/17 02:30:12;;;;;;;5.07;4.18;;;;;;;;;;5005862;28;20034;-86
2022/08/17 02:32:37;;;;;;;7.87;4.20;;;;;;;;;;4999309;28;20030;-86
2022/08/17 02:35:04;;;;;;;5.18;4.30;;;;;;;;;;4997740;28;20097;-86
2022/08/17 02:37:30;;;;;;;7.95;4.82;;;;;;;;;;4999477;28;20038;-85
2022/08/17 02:39:56;;;;;;;8.00;4.47;;;;;;;;;;5002683;28;20034;-86
2022/08/17 02:42:32;;;;;;;5.80;5.07;;;;;;;;;;5003305;28;20382;-86
2022/08/17 02:44:59;;;;;;;5.68;4.40;;;;;;;;;;5003295;28;20022;-84
2022/08/17 02:47:25;;;;;;;5.78;4.70;;;;;;;;;;4999057;28;20048;-85
2022/08/17 02:49:51;;;;;;;5.18;4.18;;;;;;;;;;5005428;28;20045;-84
2022/08/17 02:52:17;;;;;;;6.88;4.72;;;;;;;;;;5007095;28;20026;-85
2022/08/17 02:54:42;;;;;;;5.28;4.45;;;;;;;;;;4993086;28;20085;-85
2022/08/17 02:57:09;;;;;;;6.60;4.57;;;;;;;;;;5002836;28;20046;-85
2022/08/17 02:59:34;;;;;;;6.55;4.82;;;;;;;;;;5006414;28;20027;-85
2022/08/17 03:02:02;;;;;;;4.95;3.90;;;;;;;;;;5006890;28;20030;-85
2022/08/17 03:04:27;;;;;;;4.53;4.13;;;;;;;;;;5003723;28;20026;-84
2022/08/17 03:06:53;;;;;;;6.43;4.43;;;;;;;;;;5008149;28;20036;-84
2022/08/17 03:09:18;;;;;;;5.13;4.05;;;;;;;;;;5002752;28;20034;-86
2022/08/17 03:11:45;;;;;;;7.55;4.57;;;;;;;;;;5001228;28;20042;-84
2022/08/17 03:14:10;;;;;;;6.30;4.63;;;;;;;;;;5005271;28;20410;-84
2022/08/17 03:16:36;;;;;;;5.47;4.90;;;;;;;;;;5018065;28;20516;-85
2022/08/17 03:19:01;;;;;;;8.73;5.22;;;;;;;;;;5005426;28;20081;-84
2022/08/17 03:21:27;;;;;;;6.68;4.38;;;;;;;;;;5007122;28;20081;-85
2022/08/17 03:23:52;;;;;;;5.55;4.50;;;;;;;;;;5002560;28;20133;-84
2022/08/17 03:26:18;;;;;;;8.38;4.70;;;;;;;;;;5002575;28;20030;-85
2022/08/17 03:28:43;;;;;;;5.50;4.60;;;;;;;;;;5001977;28;20053;-86
2022/08/17 03:31:08;;;;;;;5.50;4.65;;;;;;;;;;5000299;28;20029;-85
2022/08/17 03:33:34;;;;;;;7.75;4.45;;;;;;;;;;5008927;28;20034;-85
2022/08/17 03:35:59;;;;;;;5.15;4.65;;;;;;;;;;4998599;28;20034;-85
2022/08/17 03:38:25;;;;;;;5.72;4.60;;;;;;;;;;5003932;28;20117;-85
2022/08/17 03:40:52;;;;;;;7.63;4.63;;;;;;;;;;5007996;28;20029;-85
2022/08/17 03:43:19;;;;;;;6.75;4.18;;;;;;;;;;5003216;28;20026;-85
2022/08/17 03:57:06;;;;;;;7.40;4.35;;;;;;;;;;5006952;28;20053;-86
2022/08/17 03:59:32;;;;;;;5.68;4.70;;;;;;;;;;5001229;28;20081;-86
2022/08/17 04:02:08;;;;;;;4.57;3.80;;;;;;;;;;5001740;28;20037;-86
2022/08/17 04:04:35;;;;;;;5.75;4.40;;;;;;;;;;5006090;28;20029;-86
2022/08/17 04:07:01;;;;;;;4.70;3.97;;;;;;;;;;5004906;28;20053;-85
2022/08/17 04:09:26;;;;;;;9.90;5.28;;;;;;;;;;5004088;28;20030;-86
2022/08/17 04:11:52;;;;;;;7.78;4.25;;;;;;;;;;4999085;28;20367;-85
2022/08/17 04:14:18;;;;;;;7.13;4.18;;;;;;;;;;5001114;28;20026;-85
2022/08/17 04:16:44;;;;;;;6.05;4.82;;;;;;;;;;5002620;28;20781;-85
2022/08/17 04:19:09;;;;;;;6.55;4.60;;;;;;;;;;5002409;28;20022;-85
2022/08/17 04:21:35;;;;;;;5.63;4.65;;;;;;;;;;5002387;28;20030;-86
2022/08/17 04:24:01;;;;;;;5.95;4.28;;;;;;;;;;5005301;28;20017;-85
2022/08/17 04:26:27;;;;;;;6.82;4.60;;;;;;;;;;5003719;28;20018;-86
2022/08/17 04:28:52;;;;;;;5.68;4.32;;;;;;;;;;5004835;28;20107;-86
2022/08/17 04:31:18;;;;;;;5.68;4.10;;;;;;;;;;5000996;28;20435;-86
2022/08/17 04:33:44;;;;;;;6.38;4.10;;;;;;;;;;4998337;28;20038;-86
2022/08/17 04:36:13;;;;;;;6.20;4.68;;;;;;;;;;5001631;28;20809;-86
2022/08/17 04:38:41;;;;;;;6.10;4.20;;;;;;;;;;4999485;28;20030;-86
2022/08/17 04:43:57;;;;;;;13.43;9.13;;;;;;;;;;4994910;28;20033;-85
2022/08/17 04:46:25;;;;;;;7.88;5.10;;;;;;;;;;4997611;28;20053;-86
2022/08/17 04:48:53;;;;;;;7.85;5.30;;;;;;;;;;4994659;28;20027;-86
2022/08/17 04:51:26;;;;;;;6.55;5.20;;;;;;;;;;5000689;28;20080;-86
2022/08/17 04:53:58;;;;;;;8.77;4.68;;;;;;;;;;5000425;28;20021;-86
2022/08/17 04:56:27;;;;;;;6.82;4.78;;;;;;;;;;4998342;28;20034;-86
2022/08/17 04:58:55;;;;;;;6.72;4.30;;;;;;;;;;4998725;28;20026;-87
2022/08/17 05:01:22;;;;;;;8.65;5.35;;;;;;;;;;4998663;28;20034;-86
2022/08/17 05:03:48;;;;;;;5.57;4.70;;;;;;;;;;4999274;28;20053;-86
2022/08/17 05:06:13;;;;;;;8.32;4.78;;;;;;;;;;5001129;28;20050;-86
2022/08/17 05:08:39;;;;;;;7.55;5.18;;;;;;;;;;5001454;28;20030;-87
2022/08/17 05:11:05;;;;;;;5.38;4.20;;;;;;;;;;5000008;28;20026;-85
2022/08/17 05:13:30;;;;;;;7.05;4.88;;;;;;;;;;5000100;28;20049;-87
2022/08/17 05:16:01;;;;;;;7.15;5.28;;;;;;;;;;5003926;28;20427;-85
2022/08/17 05:18:28;;;;;;;6.25;5.05;;;;;;;;;;5002224;28;20021;-87
2022/08/17 05:20:54;;;;;;;8.00;4.78;;;;;;;;;;5002401;28;20406;-86
2022/08/17 05:23:23;;;;;;;8.70;5.15;;;;;;;;;;4998516;28;20018;-86
2022/08/17 05:25:51;;;;;;;6.15;5.10;;;;;;;;;;5004458;28;20152;-86
2022/08/17 05:28:21;;;;;;;5.43;4.80;;;;;;;;;;5004351;28;20033;-84
2022/08/17 05:30:48;;;;;;;8.15;5.68;;;;;;;;;;4996910;28;20049;-83
2022/08/17 05:33:25;;;;;;;9.70;5.38;;;;;;;;;;4996253;28;20022;-82
2022/08/17 05:35:53;;;;;;;8.40;5.00;;;;;;;;;;5000938;28;20077;-83
2022/08/17 05:38:21;;;;;;;9.60;4.80;;;;;;;;;;4999755;28;20473;-84
2022/08/17 05:40:47;;;;;;;8.10;5.15;;;;;;;;;;4996907;28;20034;-84
2022/08/17 05:43:22;;;;;;;8.10;4.93;;;;;;;;;;5000555;28;20026;-83
2022/08/17 05:45:51;;;;;;;12.13;5.22;;;;;;;;;;5004633;28;20466;-86
2022/08/17 05:48:17;;;;;;;9.88;5.68;;;;;;;;;;5002747;28;20037;-84
2022/08/17 05:50:48;;;;;;;13.63;5.75;;;;;;;;;;4994503;28;20034;-84
2022/08/17 05:53:40;;;;;;;7.55;5.95;;;;;;;;;;4995153;28;20026;-82
2022/08/17 05:56:05;;;;;;;8.88;5.93;;;;;;;;;;4988837;28;20100;-83
2022/08/17 05:59:07;;;;;;;10.95;5.88;;;;;;;;;;4994682;28;20451;-81
2022/08/17 06:01:50;;;;;;;10.30;5.95;;;;;;;;;;4999435;28;20882;-85
2022/08/17 06:04:46;;;;;;;11.30;6.47;;;;;;;;;;4994150;28;20030;-86
2022/08/17 06:07:24;;;;;;;8.20;6.13;;;;;;;;;;4996089;28;20033;-87
2022/08/17 06:10:03;;;;;;;11.82;6.25;;;;;;;;;;4998692;28;20021;-88
2022/08/17 06:12:54;;;;;;;11.98;6.68;;;;;;;;;;5003218;28;20026;-86
2022/08/17 06:15:32;;;;;;;8.75;5.90;;;;;;;;;;4999134;28;20398;-85
2022/08/17 06:18:07;;;;;;;8.80;6.00;;;;;;;;;;5008837;28;20076;-85
2022/08/17 06:20:57;;;;;;;10.07;5.72;;;;;;;;;;4998924;28;20029;-85
2022/08/17 06:23:29;;;;;;;;;;;;;;;;;;4989574;28;20100;-86
2022/08/17 06:26:02;;;;;;;11.35;6.63;;;;;;;;;;4998418;28;19914;-85
2022/08/17 06:28:51;;;;;;;12.77;7.03;;;;;;;;;;5001925;28;20052;-85
2022/08/17 06:31:29;;;;;;;10.90;6.80;;;;;;;;;;4997961;28;20490;-85
2022/08/17 06:33:56;;;;;;;9.15;6.80;;;;;;;;;;4996481;28;20031;-86
2022/08/17 06:36:31;;;;;;;13.43;7.55;;;;;;;;;;4999512;28;20479;-83
2022/08/17 06:39:28;;;;;;;12.25;8.15;;;;;;;;;;5004494;28;20396;-83
2022/08/17 06:42:11;;;;;;;11.30;7.22;;;;;;;;;;5002842;28;20019;-86
2022/08/17 06:44:49;;;;;;;12.55;6.90;;;;;;;;;;4993954;28;20113;-86
2022/08/17 06:47:48;;;;;;;11.15;7.03;;;;;;;;;;4980918;28;20505;-86
2022/08/17 06:50:37;;;;;;;12.60;6.88;;;;;;;;;;5001871;28;20041;-87
2022/08/17 06:53:16;;;;;;;11.27;7.38;;;;;;;;;;4998113;28;20027;-88
2022/08/17 06:55:56;;;;;;;;;;;;;;;;;;4988742;28;20038;-85
2022/08/17 06:58:24;;;;;;;11.55;7.90;;;;;;;;;;4997068;28;19925;-86
2022/08/17 07:00:52;;;;;;;12.57;7.40;;;;;;;;;;4995755;28;20037;-86
2022/08/17 07:03:36;;;;;;;12.25;6.82;;;;;;;;;;5000206;28;20050;-88
2022/08/17 07:06:14;;;;;;;11.23;7.32;;;;;;;;;;5002643;28;20034;-87
2022/08/17 07:08:51;;;;;;;8.38;6.97;;;;;;;;;;4992998;28;20475;-85
2022/08/17 07:11:26;;;;;;;9.82;6.22;;;;;;;;;;5002455;28;20022;-85
2022/08/17 07:14:17;;;;;;;11.50;6.32;;;;;;;;;;4996378;28;20022;-85
2022/08/17 07:16:47;;;;;;;7.90;6.03;;;;;;;;;;4997492;28;20041;-86
2022/08/17 07:19:21;;;;;;;11.63;6.55;;;;;;;;;;4996371;28;20044;-89
2022/08/17 07:22:17;;;;;;;9.60;6.15;;;;;;;;;;5000824;28;20034;-86
2022/08/17 07:24:57;;;;;;;10.95;6.30;;;;;;;;;;4994793;28;20018;-86
2022/08/17 07:27:37;;;;;;;10.90;6.35;;;;;;;;;;4988820;28;20533;-89
2022/08/17 07:30:18;;;;;;;13.63;7.05;;;;;;;;;;5003113;28;20026;-85
2022/08/17 07:32:49;;;;;;;10.55;6.18;;;;;;;;;;5000396;28;20064;-87
2022/08/17 07:35:28;;;;;;;9.48;5.68;;;;;;;;;;5001405;28;20478;-87
2022/08/17 07:38:12;;;;;;;7.80;5.50;;;;;;;;;;4996609;28;20482;-83
2022/08/17 07:40:41;;;;;;;10.10;5.57;;;;;;;;;;4999484;28;20022;-85
2022/08/17 07:43:26;;;;;;;8.57;5.63;;;;;;;;;;5003542;28;20026;-87
2022/08/17 07:49:07;;;;;;;7.70;5.10;;;;;;;;;;5001301;28;20044;-84
2022/08/17 07:51:44;;;;;;;8.02;5.32;;;;;;;;;;5000172;28;20037;-84
2022/08/17 07:54:21;;;;;;;8.07;5.40;;;;;;;;;;4998554;28;20138;-84
2022/08/17 07:56:55;;;;;;;10.65;5.63;;;;;;;;;;4999597;28;20050;-87
2022/08/17 07:59:24;;;;;;;8.05;5.22;;;;;;;;;;5015778;28;20053;-85
2022/08/17 08:01:53;;;;;;;6.15;5.20;;;;;;;;;;5000060;28;20483;-84
2022/08/17 08:04:36;;;;;;;9.80;5.50;;;;;;;;;;4994551;28;20090;-84
2022/08/17 08:07:10;;;;;;;6.60;5.50;;;;;;;;;;4996937;28;20034;-85
2022/08/17 08:09:44;;;;;;;7.80;5.55;;;;;;;;;;4997419;28;20029;-83
2022/08/17 08:12:28;;;;;;;8.63;5.57;;;;;;;;;;5000082;28;20037;-87
2022/08/17 08:14:58;;;;;;;7.60;5.18;;;;;;;;;;5002781;28;20069;-86
2022/08/17 08:17:37;;;;;;;6.25;5.15;;;;;;;;;;5000313;28;20038;-85
2022/08/17 08:20:07;;;;;;;8.98;5.05;;;;;;;;;;5000939;28;20041;-86
2022/08/17 08:22:41;;;;;;;7.85;5.03;;;;;;;;;;4998884;28;20042;-84
2022/08/17 08:25:10;;;;;;;6.90;5.50;;;;;;;;;;5014317;28;20060;-85
2022/08/17 08:28:04;;;;;;;6.28;4.90;;;;;;;;;;4998586;28;20476;-87
2022/08/17 08:30:40;;;;;;;8.60;5.15;;;;;;;;;;4995364;28;20038;-84
2022/08/17 08:33:25;;;;;;;5.80;4.47;;;;;;;;;;5008387;28;20164;-84
2022/08/17 08:36:01;;;;;;;5.78;4.65;;;;;;;;;;4999732;28;20018;-83
2022/08/17 08:38:56;;;;;;;5.45;4.72;;;;;;;;;;5012074;28;20406;-81
2022/08/17 08:41:48;;;;;;;5.68;4.63;;;;;;;;;;4998035;28;20042;-84
2022/08/17 08:44:28;;;;;;;7.05;4.60;;;;;;;;;;4994043;28;20117;-84
2022/08/17 08:47:05;;;;;;;5.40;4.22;;;;;;;;;;5003188;28;20041;-84
2022/08/17 08:49:34;;;;;;;6.35;4.20;;;;;;;;;;4996419;28;20077;-87
2022/08/17 08:52:02;;;;;;;7.35;4.10;;;;;;;;;;4998655;28;20034;-83
2022/08/17 08:54:41;;;;;;;4.45;4.05;;;;;;;;;;5004525;28;20026;-87
2022/08/17 08:57:26;;;;;;;10.95;4.15;;;;;;;;;;4994794;28;20084;-82
2022/08/17 09:00:11;;;;;;;6.07;3.50;;;;;;;;;;4993751;28;20502;-86
2022/08/17 09:03:18;;;;;;;6.85;4.07;;;;;;;;;;4999761;28;20021;-84
2022/08/17 09:06:02;;;;;;;6.68;3.78;;;;;;;;;;4997402;28;20037;-84
2022/08/17 09:09:01;;;;;;;5.43;3.15;;;;;;;;;;5001581;28;20037;-83
2022/08/17 09:11:34;;;;;;;3.20;2.78;;;;;;;;;;5004104;28;20105;-83
2022/08/17 09:14:20;;;;;;;6.97;3.15;;;;;;;;;;5001691;28;20026;-83
2022/08/17 09:16:57;;;;;;;4.63;3.15;;;;;;;;;;5022205;28;20049;-86
2022/08/17 09:20:06;;;;;;;;;;;;;;;;;;;;;
2022/08/17 09:22:59;;;;;;;5.93;3.05;;;;;;;;;;4994491;28;20064;-81
2022/08/17 09:26:19;;;;;;;4.85;3.30;;;;;;;;;;4999010;28;20517;-83
2022/08/17 09:29:13;;;;;;;4.68;3.10;;;;;;;;;;4982518;28;20034;-82
2022/08/17 09:31:55;;;;;;;5.68;3.33;;;;;;;;;;5002217;28;20048;-84
2022/08/17 09:34:42;;;;;;;6.18;3.50;;;;;;;;;;4993583;28;20363;-85
2022/08/17 09:37:28;;;;;;;6.70;3.47;;;;;;;;;;4995201;28;20111;-86
2022/08/17 09:40:06;;;;;;;3.70;3.13;;;;;;;;;;4998241;28;20030;-85
2022/08/17 09:42:39;;;;;;;5.85;3.30;;;;;;;;;;5000599;28;20037;-82
2022/08/17 09:45:30;;;;;;;5.72;3.08;;;;;;;;;;4996625;28;20104;-88
2022/08/17 09:48:07;;;;;;;5.57;3.30;;;;;;;;;;4976420;28;20054;-83
2022/08/17 09:50:55;;;;;;;5.15;2.95;;;;;;;;;;4994207;28;20026;-84
2022/08/17 09:53:21;;;;;;;4.05;3.05;;;;;;;;;;4996463;28;20034;-85
2022/08/17 09:56:02;;;;;;;4.40;3.58;;;;;;;;;;4997972;28;20077;-87
2022/08/17 09:59:15;;;;;;;3.72;3.25;;;;;;;;;;4998229;28;20042;-86
2022/08/17 10:01:49;;;;;;;3.70;2.97;;;;;;;;;;4995370;28;20080;-84
2022/08/17 10:04:46;;;;;;;7.05;3.08;;;;;;;;;;4994253;28;20026;-86
2022/08/17 10:07:29;;;;;;;4.72;3.47;;;;;;;;;;4996671;28;20036;-84
2022/08/17 10:10:11;;;;;;;4.15;3.20;;;;;;;;;;4997424;28;20030;-84
2022/08/17 10:13:05;;;;;;;7.32;3.25;;;;;;;;;;4996379;28;20057;-84
2022/08/17 10:15:51;;;;;;;4.55;3.47;;;;;;;;;;4999066;28;20108;-85
2022/08/17 10:18:40;;;;;;;7.05;3.80;;;;;;;;;;4995750;28;20041;-88
2022/08/17 10:26:54;;;;;;;3.85;3.30;;;;;;;;;;4991372;28;20049;-84
2022/08/17 10:29:26;;;;;;;5.10;3.33;;;;;;;;;;4995627;28;20022;-86
2022/08/17 10:31:59;;;;;;;5.25;2.83;;;;;;;;;;4995909;28;20054;-86
2022/08/17 10:34:36;;;;;;;4.70;3.10;;;;;;;;;;4993704;28;20387;-85
2022/08/17 10:37:24;;;;;;;3.60;2.92;;;;;;;;;;4997301;28;20033;-87
2022/08/17 10:40:04;;;;;;;4.53;3.00;;;;;;;;;;4997671;28;20494;-87
2022/08/17 10:42:42;;;;;;;4.72;3.30;;;;;;;;;;4996615;28;20030;-85
2022/08/17 10:45:18;;;;;;;6.15;3.30;;;;;;;;;;4992967;28;20518;-86
2022/08/17 10:48:00;;;;;;;8.48;3.17;;;;;;;;;;4994833;28;20042;-86
2022/08/17 10:51:08;;;;;;;6.13;3.13;;;;;;;;;;4994471;28;20099;-86
2022/08/17 10:53:33;;;;;;;5.57;3.20;;;;;;;;;;4972196;28;20062;-84
2022/08/17 10:56:11;;;;;;;6.93;3.20;;;;;;;;;;4997151;28;20085;-85
2022/08/17 10:58:57;;;;;;;3.72;2.90;;;;;;;;;;4993494;28;20061;-86
2022/08/17 11:01:56;;;;;;;5.80;3.50;;;;;;;;;;5000174;28;20030;-85
2022/08/17 11:04:59;;;;;;;4.95;3.50;;;;;;;;;;4998377;28;20046;-87
2022/08/17 11:07:34;;;;;;;4.82;3.42;;;;;;;;;;4996978;28;20454;-87
2022/08/17 11:10:31;;;;;;;4.05;3.17;;;;;;;;;;4997114;28;20080;-86
2022/08/17 11:13:06;;;;;;;4.25;3.10;;;;;;;;;;4996544;28;20113;-84
2022/08/17 11:15:47;;;;;;;6.55;3.65;;;;;;;;;;4994204;28;20069;-84
2022/08/17 11:18:32;;;;;;;4.28;3.20;;;;;;;;;;4998339;28;20089;-85
2022/08/17 11:21:27;;;;;;;4.65;3.35;;;;;;;;;;4995252;28;20394;-84
2022/08/17 11:24:13;;;;;;;4.35;3.38;;;;;;;;;;4973940;28;20042;-85
2022/08/17 11:26:45;;;;;;;4.25;3.08;;;;;;;;;;4999582;28;20042;-84
2022/08/17 11:29:22;;;;;;;4.10;2.83;;;;;;;;;;4996402;28;20026;-83
2022/08/17 11:32:25;;;;;;;5.15;3.05;;;;;;;;;;4998432;28;20088;-85
2022/08/17 11:35:24;;;;;;;5.20;3.30;;;;;;;;;;5001832;28;20049;-84
2022/08/17 11:38:17;;;;;;;4.85;2.97;;;;;;;;;;4994674;28;20546;-85
2022/08/17 11:41:19;;;;;;;5.38;2.70;;;;;;;;;;4993087;28;20038;-85
2022/08/17 11:44:06;;;;;;;3.42;2.28;;;;;;;;;;4999495;28;20112;-83
2022/08/17 11:53:04;;;;;;;3.22;2.63;;;;;;;;;;5005025;28;20032;-86
2022/08/17 11:55:33;;;;;;;4.50;3.00;;;;;;;;;;5000636;28;20034;-85
2022/08/17 11:58:19;;;;;;;;;;;;;;;;;;5002268;28;20073;-86
2022/08/17 12:00:44;;;;;;;4.25;2.60;;;;;;;;;;4966698;28;20366;-87
2022/08/17 12:03:35;;;;;;;4.57;2.78;;;;;;;;;;4999241;28;20014;-87
2022/08/17 12:06:16;;;;;;;8.73;3.78;;;;;;;;;;4998935;28;20041;-86
2022/08/17 12:09:23;;;;;;;4.80;3.67;;;;;;;;;;4998439;28;21302;-86
2022/08/17 12:20:38;;;;;;;6.13;4.38;;;;;;;;;;4976392;28;20113;-81
2022/08/17 12:23:34;;;;;;;6.60;3.95;;;;;;;;;;4995333;28;20022;-81
2022/08/17 12:26:25;;;;;;;6.72;4.35;;;;;;;;;;4981771;28;20025;-79
2022/08/17 12:28:58;;;;;;;5.00;4.28;;;;;;;;;;4984752;28;20053;-84
2022/08/17 12:31:27;;;;;;;6.35;4.05;;;;;;;;;;5002381;28;20036;-81
2022/08/17 12:33:53;;;;;;;4.88;4.43;;;;;;;;;;5002697;28;20105;-82
2022/08/17 12:36:24;;;;;;;4.18;3.78;;;;;;;;;;4999774;28;20117;-81
2022/08/17 12:39:00;;;;;;;4.32;3.92;;;;;;;;;;4996486;28;20486;-82
2022/08/17 12:41:39;;;;;;;5.13;4.03;;;;;;;;;;4977266;28;20061;-83
2022/08/17 12:44:20;;;;;;;5.00;4.05;;;;;;;;;;5003407;28;20017;-83
2022/08/17 12:47:06;;;;;;;5.53;4.13;;;;;;;;;;4978298;28;20050;-85
2022/08/17 12:49:36;;;;;;;5.07;3.80;;;;;;;;;;4994115;28;20487;-83
2022/08/17 12:52:11;;;;;;;4.93;4.32;;;;;;;;;;4977656;28;20033;-83
2022/08/17 12:54:51;;;;;;;6.30;3.92;;;;;;;;;;4997355;28;20117;-83
2022/08/17 12:57:24;;;;;;;7.28;4.30;;;;;;;;;;4994044;28;20091;-84
2022/08/17 12:59:57;;;;;;;5.22;3.83;;;;;;;;;;4997190;28;20104;-82
2022/08/17 13:02:37;;;;;;;6.55;4.65;;;;;;;;;;4996187;28;20069;-83
2022/08/17 13:05:04;;;;;;;6.53;3.67;;;;;;;;;;4993041;28;20026;-84
2022/08/17 13:07:34;;;;;;;4.85;3.83;;;;;;;;;;4994352;28;20026;-85
2022/08/17 13:10:00;;;;;;;4.90;3.42;;;;;;;;;;4978265;28;20045;-82
2022/08/17 13:12:31;;;;;;;4.07;3.60;;;;;;;;;;4995567;28;20462;-83
2022/08/17 13:14:57;;;;;;;4.35;3.50;;;;;;;;;;4996528;28;20018;-83
2022/08/17 13:17:41;;;;;;;3.88;3.47;;;;;;;;;;4990849;28;20107;-85
2022/08/17 13:20:13;;;;;;;4.53;3.47;;;;;;;;;;4992186;28;20030;-86
2022/08/17 13:22:39;;;;;;;4.13;3.20;;;;;;;;;;4993121;28;20101;-88
2022/08/17 13:25:08;;;;;;;5.60;3.40;;;;;;;;;;4999099;28;20110;-85
2022/08/17 13:27:34;;;;;;;5.32;3.28;;;;;;;;;;4997066;28;20062;-86
2022/08/17 13:30:10;;;;;;;3.70;3.20;;;;;;;;;;4983201;28;20069;-86
2022/08/17 13:32:42;;;;;;;3.47;3.17;;;;;;;;;;4998786;28;20045;-86
2022/08/17 13:35:44;;;;;;;5.30;3.30;;;;;;;;;;4998831;28;20030;-85
2022/08/17 13:38:15;;;;;;;5.20;3.08;;;;;;;;;;4943915;29;20055;-88
2022/08/17 13:40:42;;;;;;;3.33;3.00;;;;;;;;;;4990583;28;20034;-86
2022/08/17 13:43:08;;;;;;;4.15;3.00;;;;;;;;;;5003397;28;20422;-87
2022/08/17 13:45:43;;;;;;;4.45;3.33;;;;;;;;;;5000635;28;20105;-87
2022/08/17 13:48:15;;;;;;;5.03;2.90;;;;;;;;;;4995815;28;20022;-86
2022/08/17 13:50:40;;;;;;;7.55;3.47;;;;;;;;;;5004681;28;20070;-86
2022/08/17 13:53:31;;;;;;;3.45;3.15;;;;;;;;;;4999882;28;20104;-86
2022/08/17 13:56:13;;;;;;;6.03;3.40;;;;;;;;;;4993337;28;20574;-87
2022/08/17 13:58:54;;;;;;;3.47;2.83;;;;;;;;;;4992613;28;20041;-85
2022/08/17 14:01:47;;;;;;;4.57;3.70;;;;;;;;;;5001603;28;20037;-84
2022/08/17 14:04:14;;;;;;;4.93;3.50;;;;;;;;;;4978180;28;20029;-88
2022/08/17 14:07:03;;;;;;;5.03;3.20;;;;;;;;;;5001501;28;20088;-85
2022/08/17 14:09:33;;;;;;;;;;;;;;;;;;4989423;28;20552;-85
2022/08/17 14:11:59;;;;;;;4.82;2.92;;;;;;;;;;4997054;28;20372;-85
2022/08/17 14:14:26;;;;;;;5.50;3.20;;;;;;;;;;5001981;28;20031;-90
2022/08/17 14:16:52;;;;;;;4.20;3.45;;;;;;;;;;4995583;28;20053;-88
2022/08/17 14:19:23;;;;;;;4.55;3.05;;;;;;;;;;4995407;28;20034;-85
2022/08/17 14:21:49;;;;;;;4.15;3.10;;;;;;;;;;5005118;28;20375;-85
2022/08/17 14:28:14;;;;;;;5.03;2.92;;;;;;;;;;5001638;28;20064;-86
2022/08/17 14:48:11;;;;;;;4.88;3.22;;;;;;;;;;4944147;29;20054;-86
2022/08/17 14:50:52;;;;;;;5.03;3.83;;;;;;;;;;4953741;29;20127;-85
2022/08/17 14:53:22;;;;;;;4.60;3.42;;;;;;;;;;4950976;29;20172;-85
2022/08/17 14:59:07;;;;;;;4.72;3.58;;;;;;;;;;4970656;28;20460;-87
2022/08/17 15:01:39;;;;;;;4.78;3.53;;;;;;;;;;4963539;28;20129;-83
2022/08/17 15:04:06;;;;;;;4.65;3.60;;;;;;;;;;4973492;28;20059;-83
2022/08/17 15:07:24;;;;;;;6.32;3.50;;;;;;;;;;4977804;28;20026;-86
2022/08/17 15:09:49;;;;;;;6.28;3.63;;;;;;;;;;4958411;28;20038;-85
2022/08/17 15:12:21;;;;;;;7.72;3.53;;;;;;;;;;4981597;28;20026;-85
2022/08/17 15:14:47;;;;;;;4.63;3.72;;;;;;;;;;4996401;28;20042;-84
2022/08/17 15:17:12;;;;;;;3.83;3.53;;;;;;;;;;4990571;28;20065;-83
2022/08/17 15:19:37;;;;;;;4.80;3.67;;;;;;;;;;4998960;28;20049;-87
2022/08/17 15:22:03;;;;;;;4.35;3.40;;;;;;;;;;4999390;28;20101;-85
2022/08/17 15:24:28;;;;;;;4.05;3.08;;;;;;;;;;4998507;28;20042;-87
2022/08/17 15:26:54;;;;;;;4.53;3.00;;;;;;;;;;4999952;28;20508;-85
2022/08/17 15:29:19;;;;;;;6.85;3.63;;;;;;;;;;4996259;28;20041;-85
2022/08/17 15:31:44;;;;;;;4.45;3.42;;;;;;;;;;5002979;28;20084;-85
2022/08/17 15:34:10;;;;;;;4.18;3.30;;;;;;;;;;5003982;28;20109;-85
2022/08/17 15:36:36;;;;;;;5.07;3.45;;;;;;;;;;4999762;28;20034;-88
2022/08/17 15:39:01;;;;;;;4.57;3.85;;;;;;;;;;4993240;28;20034;-87
2022/08/17 15:41:28;;;;;;;5.40;3.65;;;;;;;;;;4997283;28;20423;-87
2022/08/17 15:43:54;;;;;;;4.85;3.50;;;;;;;;;;5000403;28;20038;-86
2022/08/17 15:46:22;;;;;;;4.95;3.70;;;;;;;;;;4998600;28;20422;-85
2022/08/17 15:48:55;;;;;;;4.20;2.95;;;;;;;;;;5003481;28;20050;-84
2022/08/17 15:51:30;;;;;;;5.25;3.40;;;;;;;;;;4997872;28;20036;-83
2022/08/17 15:54:01;;;;;;;9.07;3.65;;;;;;;;;;4999739;28;20058;-85
2022/08/17 15:56:27;;;;;;;3.95;3.30;;;;;;;;;;4996302;28;20386;-86
2022/08/17 15:58:54;;;;;;;6.10;3.60;;;;;;;;;;5004269;28;20506;-85
2022/08/17 16:01:21;;;;;;;6.25;3.40;;;;;;;;;;5002167;28;20026;-84
2022/08/17 16:03:48;;;;;;;5.75;2.85;;;;;;;;;;5004854;28;20560;-87
2022/08/17 16:06:14;;;;;;;5.28;3.13;;;;;;;;;;4999679;28;20085;-86
2022/08/17 16:08:42;;;;;;;3.60;3.00;;;;;;;;;;5001480;28;20053;-84
2022/08/17 16:11:10;;;;;;;4.27;3.43;;;;;;;;;;4997227;28;20391;-85
2022/08/17 16:13:35;;;;;;;3.10;2.80;;;;;;;;;;4997356;28;20439;-84
2022/08/17 16:16:01;;;;;;;3.63;3.28;;;;;;;;;;4996439;28;20034;-83
2022/08/17 16:18:30;;;;;;;3.97;2.80;;;;;;;;;;4998547;28;20038;-85
2022/08/17 16:21:24;;;;;;;3.50;3.20;;;;;;;;;;4998693;28;20026;-83
2022/08/17 16:23:50;;;;;;;4.30;2.90;;;;;;;;;;4997819;28;20317;-83
2022/08/17 16:26:17;;;;;;;4.63;2.67;;;;;;;;;;5015430;28;20026;-83
2022/08/17 16:28:43;;;;;;;4.20;3.03;;;;;;;;;;5013339;28;20052;-83
2022/08/17 16:31:09;;;;;;;5.95;3.05;;;;;;;;;;4994566;28;20470;-83